createdAt,value
2019-03-20T00:01:43.185Z,22.46
2019-03-20T00:03:34.052Z,22.20
2019-03-20T00:05:35.696Z,22.45
2019-03-20T00:07:37.307Z,22.45
2019-03-20T00:09:38.962Z,22.45
2019-03-20T00:11:40.649Z,22.34
2019-03-20T00:13:42.251Z,22.44
2019-03-20T00:15:43.860Z,22.42
2019-03-20T00:17:45.458Z,22.40
2019-03-20T00:19:47.068Z,22.38
2019-03-20T00:21:48.656Z,22.36
2019-03-20T00:23:50.250Z,22.32
2019-03-20T00:25:51.849Z,22.29
2019-03-20T00:27:53.447Z,22.28
2019-03-20T00:29:55.054Z,22.25
2019-03-20T00:31:56.653Z,22.23
2019-03-20T00:33:58.262Z,22.21
2019-03-20T00:35:59.880Z,22.20
2019-03-20T00:38:06.489Z,22.18
2019-03-20T00:40:08.082Z,22.16
2019-03-20T00:42:09.714Z,22.13
2019-03-20T00:44:11.412Z,22.11
2019-03-20T00:46:13.011Z,22.11
2019-03-20T00:48:14.605Z,22.10
2019-03-20T00:50:16.228Z,22.07
2019-03-20T00:52:17.876Z,22.12
2019-03-20T00:54:19.479Z,22.15
2019-03-20T00:56:21.282Z,22.14
2019-03-20T00:58:22.873Z,22.12
2019-03-20T01:00:24.490Z,22.10
2019-03-20T01:02:26.126Z,22.07
2019-03-20T01:04:27.763Z,22.05
2019-03-20T01:06:29.357Z,22.05
2019-03-20T01:08:30.950Z,22.08
2019-03-20T01:10:32.626Z,22.11
2019-03-20T01:12:34.226Z,22.07
2019-03-20T01:14:35.911Z,22.11
2019-03-20T01:16:37.506Z,22.07
2019-03-20T01:18:39.125Z,22.06
2019-03-20T01:20:40.855Z,22.05
2019-03-20T01:22:42.453Z,22.08
2019-03-20T01:24:44.091Z,22.08
2019-03-20T01:26:45.685Z,22.08
2019-03-20T01:28:47.332Z,22.09
2019-03-20T01:30:48.930Z,22.08
2019-03-20T01:32:50.526Z,22.08
2019-03-20T01:34:52.147Z,21.83
2019-03-20T01:36:53.742Z,22.06
2019-03-20T01:38:55.382Z,22.06
2019-03-20T01:40:56.999Z,22.05
2019-03-20T01:42:58.609Z,22.00
2019-03-20T01:45:00.425Z,22.01
2019-03-20T01:47:02.600Z,22.01
2019-03-20T01:49:06.400Z,22.05
2019-03-20T01:51:07.991Z,22.10
2019-03-20T01:53:09.607Z,22.18
2019-03-20T01:55:11.347Z,22.22
2019-03-20T01:57:12.942Z,22.13
2019-03-20T01:59:14.534Z,22.11
2019-03-20T02:01:16.126Z,22.13
2019-03-20T02:03:17.722Z,22.14
2019-03-20T02:05:19.349Z,22.18
2019-03-20T02:07:20.941Z,22.20
2019-03-20T02:09:22.536Z,22.16
2019-03-20T02:11:24.144Z,22.15
2019-03-20T02:13:25.753Z,22.15
2019-03-20T02:15:38.167Z,22.13
2019-03-20T02:17:29.008Z,22.13
2019-03-20T02:19:30.615Z,22.11
2019-03-20T02:21:32.255Z,22.09
2019-03-20T02:23:33.862Z,22.08
2019-03-20T02:25:35.444Z,22.05
2019-03-20T02:27:37.084Z,22.03
2019-03-20T02:29:38.692Z,22.02
2019-03-20T02:31:40.404Z,22.02
2019-03-20T02:33:42.020Z,22.03
2019-03-20T02:35:51.223Z,22.03
2019-03-20T02:37:45.316Z,22.02
2019-03-20T02:39:46.917Z,22.02
2019-03-20T02:41:48.543Z,22.06
2019-03-20T02:43:50.138Z,22.08
2019-03-20T02:45:51.748Z,22.07
2019-03-20T02:47:53.397Z,22.06
2019-03-20T02:49:55.007Z,22.10
2019-03-20T02:51:56.641Z,22.10
2019-03-20T02:53:58.242Z,22.14
2019-03-20T02:55:59.881Z,22.16
2019-03-20T02:58:06.504Z,22.19
2019-03-20T03:00:09.444Z,22.29
2019-03-20T03:02:11.044Z,22.20
2019-03-20T03:04:12.697Z,22.37
2019-03-20T03:06:14.309Z,22.40
2019-03-20T03:08:15.937Z,22.45
2019-03-20T03:10:17.562Z,22.44
2019-03-20T03:12:19.168Z,22.43
2019-03-20T03:14:20.809Z,22.39
2019-03-20T03:16:22.406Z,22.35
2019-03-20T03:18:24.046Z,22.32
2019-03-20T03:20:25.641Z,22.33
2019-03-20T03:22:27.240Z,22.31
2019-03-20T03:24:28.875Z,22.31
2019-03-20T03:26:30.466Z,22.31
2019-03-20T03:28:32.074Z,22.27
2019-03-20T03:30:33.699Z,22.24
2019-03-20T03:32:35.318Z,22.25
2019-03-20T03:34:36.943Z,22.25
2019-03-20T03:36:39.152Z,22.22
2019-03-20T03:38:40.766Z,22.17
2019-03-20T03:40:42.371Z,22.15
2019-03-20T03:42:43.975Z,22.14
2019-03-20T03:44:45.583Z,22.11
2019-03-20T03:46:47.197Z,22.12
2019-03-20T03:48:48.784Z,22.12
2019-03-20T03:50:50.391Z,22.10
2019-03-20T03:52:52.013Z,22.08
2019-03-20T03:54:53.601Z,22.05
2019-03-20T03:56:55.263Z,22.07
2019-03-20T03:58:56.877Z,22.07
2019-03-20T04:00:58.505Z,22.06
2019-03-20T04:03:00.116Z,22.05
2019-03-20T04:05:06.557Z,22.07
2019-03-20T04:07:08.254Z,22.07
2019-03-20T04:09:09.855Z,22.08
2019-03-20T04:11:11.507Z,22.08
2019-03-20T04:13:13.121Z,22.09
2019-03-20T04:15:14.738Z,22.12
2019-03-20T04:17:16.385Z,22.14
2019-03-20T04:19:18.005Z,22.17
2019-03-20T04:21:19.648Z,22.20
2019-03-20T04:23:21.248Z,22.26
2019-03-20T04:25:22.853Z,22.28
2019-03-20T04:27:24.499Z,22.31
2019-03-20T04:29:26.107Z,22.32
2019-03-20T04:31:27.930Z,22.29
2019-03-20T04:33:29.539Z,22.27
2019-03-20T04:35:31.152Z,22.20
2019-03-20T04:37:32.776Z,22.15
2019-03-20T04:39:34.369Z,22.09
2019-03-20T04:41:35.972Z,22.05
2019-03-20T04:43:37.575Z,22.09
2019-03-20T04:45:39.180Z,22.08
2019-03-20T04:47:40.813Z,22.05
2019-03-20T04:49:42.427Z,22.01
2019-03-20T04:51:44.057Z,21.99
2019-03-20T04:53:45.664Z,21.96
2019-03-20T04:55:47.280Z,21.94
2019-03-20T04:57:48.877Z,21.96
2019-03-20T04:59:50.485Z,21.95
2019-03-20T05:01:52.118Z,21.97
2019-03-20T05:03:53.755Z,21.98
2019-03-20T05:05:55.359Z,21.99
2019-03-20T05:07:56.971Z,22.02
2019-03-20T05:09:58.594Z,22.05
2019-03-20T05:12:00.190Z,22.05
2019-03-20T05:14:05.646Z,22.03
2019-03-20T05:16:07.277Z,22.04
2019-03-20T05:18:08.883Z,22.02
2019-03-20T05:20:10.468Z,21.95
2019-03-20T05:22:12.063Z,21.93
2019-03-20T05:24:13.684Z,21.95
2019-03-20T05:26:15.268Z,21.94
2019-03-20T05:28:16.865Z,21.94
2019-03-20T05:30:18.473Z,21.97
2019-03-20T05:32:20.068Z,21.96
2019-03-20T05:34:21.717Z,21.99
2019-03-20T05:36:23.338Z,22.03
2019-03-20T05:38:24.939Z,22.08
2019-03-20T05:40:26.534Z,22.25
2019-03-20T05:42:28.134Z,22.28
2019-03-20T05:44:29.812Z,22.37
2019-03-20T05:46:31.462Z,22.42
2019-03-20T05:48:33.072Z,22.42
2019-03-20T05:50:34.670Z,22.42
2019-03-20T05:52:36.299Z,22.43
2019-03-20T05:54:37.900Z,22.44
2019-03-20T05:56:39.562Z,22.44
2019-03-20T05:58:41.177Z,22.60
2019-03-20T06:00:42.775Z,22.48
2019-03-20T06:02:44.369Z,22.38
2019-03-20T06:04:45.985Z,22.30
2019-03-20T06:06:47.628Z,22.26
2019-03-20T06:08:49.226Z,22.24
2019-03-20T06:10:50.858Z,22.39
2019-03-20T06:12:52.468Z,22.57
2019-03-20T06:14:54.072Z,22.52
2019-03-20T06:16:55.894Z,22.29
2019-03-20T06:18:57.491Z,22.16
2019-03-20T06:20:59.068Z,22.05
2019-03-20T06:23:00.694Z,21.98
2019-03-20T06:25:07.378Z,21.92
2019-03-20T06:27:09.391Z,21.87
2019-03-20T06:29:11.003Z,21.80
2019-03-20T06:31:12.708Z,21.76
2019-03-20T06:33:14.288Z,21.70
2019-03-20T06:35:15.882Z,21.69
2019-03-20T06:37:17.541Z,21.63
2019-03-20T06:39:19.135Z,18.77
2019-03-20T06:41:20.730Z,17.46
2019-03-20T06:43:22.343Z,18.58
2019-03-20T06:45:24.128Z,19.88
2019-03-20T06:47:25.726Z,20.56
2019-03-20T06:49:27.328Z,20.98
2019-03-20T06:51:28.962Z,21.28
2019-03-20T06:53:30.554Z,21.49
2019-03-20T06:55:32.171Z,21.63
2019-03-20T06:57:33.771Z,21.72
2019-03-20T06:59:35.402Z,21.89
2019-03-20T07:01:37.003Z,22.01
2019-03-20T07:03:38.612Z,22.08
2019-03-20T07:05:40.212Z,22.17
2019-03-20T07:07:44.424Z,22.22
2019-03-20T07:09:43.466Z,22.26
2019-03-20T07:11:45.058Z,22.29
2019-03-20T07:13:46.664Z,22.33
2019-03-20T07:15:48.294Z,22.37
2019-03-20T07:17:49.891Z,22.39
2019-03-20T07:19:51.518Z,22.40
2019-03-20T07:21:53.120Z,22.40
2019-03-20T07:23:54.802Z,22.40
2019-03-20T07:25:56.409Z,22.41
2019-03-20T07:27:58.001Z,22.43
2019-03-20T07:29:59.594Z,22.42
2019-03-20T07:32:06.234Z,22.45
2019-03-20T07:36:14.895Z,22.44
2019-03-20T07:38:16.516Z,22.43
2019-03-20T07:40:18.183Z,22.39
2019-03-20T07:42:19.801Z,22.36
2019-03-20T07:44:21.422Z,22.32
2019-03-20T07:46:23.081Z,22.28
2019-03-20T07:48:24.708Z,22.23
2019-03-20T07:50:26.383Z,22.17
2019-03-20T07:52:28.009Z,22.13
2019-03-20T07:54:29.634Z,22.11
2019-03-20T07:56:31.305Z,22.08
2019-03-20T07:58:32.925Z,22.06
2019-03-20T08:00:34.567Z,22.09
2019-03-20T08:02:36.237Z,22.13
2019-03-20T08:04:37.867Z,22.14
2019-03-20T08:06:39.500Z,22.14
2019-03-20T08:08:41.158Z,22.09
2019-03-20T08:10:42.782Z,22.03
2019-03-20T08:12:44.426Z,22.09
2019-03-20T08:14:46.050Z,22.07
2019-03-20T08:16:47.685Z,22.07
2019-03-20T08:18:49.314Z,22.00
2019-03-20T08:20:50.938Z,22.01
2019-03-20T08:22:52.602Z,22.15
2019-03-20T08:24:55.769Z,22.30
2019-03-20T08:26:55.939Z,22.37
2019-03-20T08:28:57.607Z,22.37
2019-03-20T08:30:59.229Z,22.41
2019-03-20T08:33:00.894Z,22.44
2019-03-20T08:35:06.710Z,22.54
2019-03-20T08:37:08.338Z,22.55
2019-03-20T08:39:09.958Z,22.62
2019-03-20T08:41:11.578Z,22.69
2019-03-20T08:43:13.254Z,22.75
2019-03-20T08:45:14.884Z,22.78
2019-03-20T08:47:16.506Z,22.75
2019-03-20T08:49:18.130Z,22.76
2019-03-20T08:51:19.754Z,22.59
2019-03-20T08:53:21.413Z,22.48
2019-03-20T08:55:23.078Z,22.42
2019-03-20T08:57:24.712Z,22.37
2019-03-20T08:59:26.359Z,22.34
2019-03-20T09:01:29.049Z,22.23
2019-03-20T09:03:29.750Z,22.20
2019-03-20T09:05:31.392Z,22.14
2019-03-20T09:07:33.019Z,22.14
2019-03-20T09:09:34.699Z,22.23
2019-03-20T09:11:36.324Z,22.43
2019-03-20T09:13:37.955Z,22.47
2019-03-20T09:15:39.613Z,22.40
2019-03-20T09:17:41.238Z,22.37
2019-03-20T09:19:42.867Z,22.34
2019-03-20T09:21:44.490Z,22.34
2019-03-20T09:23:46.117Z,22.57
2019-03-20T09:25:47.774Z,22.73
2019-03-20T09:27:49.397Z,22.66
2019-03-20T09:29:51.081Z,22.70
2019-03-20T09:31:52.705Z,22.79
2019-03-20T09:33:54.352Z,22.61
2019-03-20T09:35:56.051Z,22.65
2019-03-20T09:37:57.678Z,22.72
2019-03-20T09:39:59.349Z,22.75
2019-03-20T09:42:05.975Z,22.66
2019-03-20T09:44:07.698Z,22.82
2019-03-20T09:46:09.371Z,22.65
2019-03-20T09:48:11.703Z,22.62
2019-03-20T09:50:13.335Z,22.76
2019-03-20T09:52:14.954Z,22.70
2019-03-20T09:54:16.583Z,22.69
2019-03-20T09:56:18.207Z,22.60
2019-03-20T09:58:19.834Z,22.83
2019-03-20T10:00:21.457Z,22.97
2019-03-20T10:02:23.173Z,23.21
2019-03-20T10:04:24.803Z,23.45
2019-03-20T10:06:26.467Z,23.48
2019-03-20T10:08:28.110Z,23.46
2019-03-20T10:10:29.787Z,22.88
2019-03-20T10:12:31.410Z,22.94
2019-03-20T10:14:33.034Z,23.25
2019-03-20T10:16:34.810Z,23.54
2019-03-20T10:18:36.438Z,23.46
2019-03-20T10:20:38.062Z,23.69
2019-03-20T10:22:39.681Z,23.31
2019-03-20T10:24:41.307Z,22.81
2019-03-20T10:26:42.934Z,22.64
2019-03-20T10:28:44.554Z,22.77
2019-03-20T10:30:46.180Z,22.91
2019-03-20T10:32:47.802Z,22.82
2019-03-20T10:34:49.422Z,22.92
2019-03-20T10:36:51.110Z,23.01
2019-03-20T10:38:52.802Z,23.03
2019-03-20T10:40:54.426Z,23.08
2019-03-20T10:42:56.108Z,23.04
2019-03-20T10:44:57.738Z,22.84
2019-03-20T10:46:59.402Z,22.93
2019-03-20T10:49:06.017Z,22.97
2019-03-20T10:51:07.739Z,23.06
2019-03-20T10:53:09.363Z,23.07
2019-03-20T10:55:10.987Z,23.08
2019-03-20T10:57:12.628Z,23.08
2019-03-20T10:59:14.267Z,23.08
2019-03-20T11:01:15.951Z,23.10
2019-03-20T11:03:17.574Z,22.91
2019-03-20T11:05:19.409Z,22.94
2019-03-20T11:07:21.035Z,23.26
2019-03-20T11:09:22.662Z,23.26
2019-03-20T11:11:27.289Z,23.63
2019-03-20T11:13:26.121Z,23.56
2019-03-20T11:15:29.679Z,23.62
2019-03-20T11:17:29.458Z,24.16
2019-03-20T11:19:31.078Z,23.71
2019-03-20T11:21:32.714Z,23.55
2019-03-20T11:23:34.338Z,23.82
2019-03-20T11:25:36.085Z,24.46
2019-03-20T11:27:37.718Z,24.67
2019-03-20T11:29:39.351Z,24.54
2019-03-20T11:31:40.978Z,23.93
2019-03-20T11:33:42.601Z,24.07
2019-03-20T11:35:44.273Z,24.59
2019-03-20T11:37:45.902Z,24.09
2019-03-20T11:39:47.522Z,23.57
2019-03-20T11:41:49.145Z,23.18
2019-03-20T11:43:50.768Z,23.15
2019-03-20T11:45:52.391Z,23.05
2019-03-20T11:47:54.157Z,23.08
2019-03-20T11:49:56.506Z,23.12
2019-03-20T11:51:58.126Z,23.20
2019-03-20T11:53:59.786Z,23.23
2019-03-20T11:56:04.942Z,23.25
2019-03-20T11:58:06.675Z,23.25
2019-03-20T12:00:08.298Z,23.27
2019-03-20T12:02:10.074Z,23.24
2019-03-20T12:04:11.707Z,23.12
2019-03-20T12:06:13.472Z,23.22
2019-03-20T12:08:15.194Z,23.24
2019-03-20T12:10:16.826Z,23.20
2019-03-20T12:12:18.448Z,22.98
2019-03-20T12:14:20.079Z,23.26
2019-03-20T12:16:21.706Z,23.28
2019-03-20T12:18:23.378Z,23.29
2019-03-20T12:20:24.998Z,23.30
2019-03-20T12:22:26.650Z,23.30
2019-03-20T12:24:28.282Z,23.28
2019-03-20T12:26:29.910Z,23.28
2019-03-20T12:28:31.596Z,23.30
2019-03-20T12:30:33.238Z,23.25
2019-03-20T12:32:34.862Z,23.26
2019-03-20T12:34:36.491Z,23.26
2019-03-20T12:36:38.123Z,23.26
2019-03-20T12:38:39.790Z,23.26
2019-03-20T12:40:41.677Z,23.51
2019-03-20T12:42:43.306Z,23.96
2019-03-20T12:44:44.936Z,23.77
2019-03-20T12:46:46.700Z,23.70
2019-03-20T12:48:48.343Z,23.65
2019-03-20T12:50:49.969Z,23.66
2019-03-20T12:52:51.630Z,23.65
2019-03-20T12:54:53.342Z,23.60
2019-03-20T12:56:54.970Z,23.62
2019-03-20T12:58:56.705Z,23.64
2019-03-20T13:00:58.375Z,23.61
2019-03-20T13:03:00.003Z,23.65
2019-03-20T13:05:07.360Z,23.67
2019-03-20T13:07:08.995Z,23.69
2019-03-20T13:09:10.617Z,23.68
2019-03-20T13:11:13.362Z,23.68
2019-03-20T13:13:15.042Z,23.67
2019-03-20T13:15:16.677Z,23.65
2019-03-20T13:17:18.393Z,23.64
2019-03-20T13:19:20.023Z,23.61
2019-03-20T13:21:22.002Z,23.59
2019-03-20T13:23:23.625Z,23.56
2019-03-20T13:25:25.292Z,23.55
2019-03-20T13:27:26.915Z,23.53
2019-03-20T13:29:28.549Z,23.50
2019-03-20T13:31:31.295Z,23.48
2019-03-20T13:33:32.921Z,23.43
2019-03-20T13:35:34.745Z,23.43
2019-03-20T13:37:36.370Z,23.41
2019-03-20T13:39:37.998Z,23.37
2019-03-20T13:41:39.716Z,23.36
2019-03-20T13:43:41.358Z,23.32
2019-03-20T13:45:43.218Z,23.29
2019-03-20T13:47:44.878Z,22.93
2019-03-20T13:49:46.507Z,23.26
2019-03-20T13:51:48.182Z,23.23
2019-03-20T13:53:49.858Z,23.20
2019-03-20T13:55:51.486Z,23.16
2019-03-20T13:57:53.110Z,23.15
2019-03-20T13:59:54.734Z,23.10
2019-03-20T14:01:56.357Z,23.07
2019-03-20T14:03:58.018Z,23.03
2019-03-20T14:05:59.682Z,23.02
2019-03-20T14:08:06.699Z,22.97
2019-03-20T14:10:08.354Z,22.98
2019-03-20T14:12:10.200Z,22.84
2019-03-20T14:14:11.824Z,22.84
2019-03-20T14:16:13.446Z,23.00
2019-03-20T14:18:15.112Z,23.05
2019-03-20T14:20:17.106Z,23.06
2019-03-20T14:22:18.750Z,23.07
2019-03-20T14:24:20.404Z,23.08
2019-03-20T14:26:22.158Z,23.10
2019-03-20T14:28:23.781Z,23.09
2019-03-20T14:30:25.452Z,23.09
2019-03-20T14:32:27.078Z,23.14
2019-03-20T14:34:28.702Z,23.16
2019-03-20T14:36:30.366Z,23.20
2019-03-20T14:38:32.006Z,23.20
2019-03-20T14:40:36.964Z,23.21
2019-03-20T14:42:35.349Z,23.21
2019-03-20T14:44:36.970Z,23.23
2019-03-20T14:46:38.594Z,23.26
2019-03-20T14:48:40.269Z,23.30
2019-03-20T14:50:41.900Z,23.32
2019-03-20T14:52:43.522Z,23.31
2019-03-20T14:54:45.142Z,23.29
2019-03-20T14:56:46.761Z,23.30
2019-03-20T14:58:48.393Z,23.28
2019-03-20T15:00:50.093Z,23.02
2019-03-20T15:02:51.872Z,23.22
2019-03-20T15:04:53.549Z,23.24
2019-03-20T15:06:55.206Z,23.24
2019-03-20T15:08:56.849Z,23.20
2019-03-20T15:10:58.474Z,23.17
2019-03-20T15:13:00.094Z,23.15
2019-03-20T15:15:06.648Z,23.10
2019-03-20T15:17:08.494Z,23.08
2019-03-20T15:19:10.210Z,23.06
2019-03-20T15:21:12.850Z,23.04
2019-03-20T15:23:14.473Z,23.04
2019-03-20T15:25:16.158Z,23.00
2019-03-20T15:27:18.022Z,22.96
2019-03-20T15:29:19.655Z,22.93
2019-03-20T15:31:21.273Z,22.90
2019-03-20T15:33:22.904Z,22.88
2019-03-20T15:35:24.542Z,22.89
2019-03-20T15:37:26.214Z,22.90
2019-03-20T15:39:27.874Z,22.89
2019-03-20T15:41:29.499Z,22.71
2019-03-20T15:43:31.135Z,22.59
2019-03-20T15:45:33.047Z,22.46
2019-03-20T15:47:35.267Z,22.40
2019-03-20T15:49:36.891Z,22.34
2019-03-20T15:51:38.514Z,22.32
2019-03-20T15:53:40.142Z,22.26
2019-03-20T15:55:41.767Z,21.92
2019-03-20T15:57:43.426Z,22.10
2019-03-20T15:59:45.051Z,22.08
2019-03-20T16:01:46.674Z,22.03
2019-03-20T16:03:48.346Z,22.03
2019-03-20T16:05:50.554Z,22.61
2019-03-20T16:07:52.230Z,22.93
2019-03-20T16:09:54.222Z,23.08
2019-03-20T16:11:55.846Z,22.87
2019-03-20T16:13:57.470Z,22.93
2019-03-20T16:15:59.214Z,23.29
2019-03-20T16:18:00.886Z,23.44
2019-03-20T16:20:07.449Z,23.56
2019-03-20T16:22:09.074Z,23.71
2019-03-20T16:24:10.729Z,23.61
2019-03-20T16:26:12.340Z,23.36
2019-03-20T16:28:13.970Z,23.30
2019-03-20T16:30:15.575Z,23.45
2019-03-20T16:32:17.188Z,23.65
2019-03-20T16:34:18.799Z,23.54
2019-03-20T16:36:20.402Z,23.40
2019-03-20T16:38:21.999Z,23.55
2019-03-20T16:40:23.646Z,23.69
2019-03-20T16:42:25.285Z,23.56
2019-03-20T16:44:26.936Z,23.49
2019-03-20T16:46:28.540Z,23.30
2019-03-20T16:48:30.144Z,23.57
2019-03-20T16:50:31.920Z,23.69
2019-03-20T16:52:33.550Z,23.65
2019-03-20T16:54:35.155Z,23.95
2019-03-20T16:56:36.753Z,24.07
2019-03-20T16:58:38.401Z,24.12
2019-03-20T17:00:40.012Z,23.92
2019-03-20T17:02:41.652Z,23.70
2019-03-20T17:04:43.286Z,23.76
2019-03-20T17:06:44.933Z,23.26
2019-03-20T17:08:46.583Z,22.99
2019-03-20T17:10:48.860Z,22.91
2019-03-20T17:12:50.642Z,23.19
2019-03-20T17:14:52.521Z,23.34
2019-03-20T17:16:54.250Z,23.25
2019-03-20T17:18:56.766Z,23.08
2019-03-20T17:20:58.722Z,22.98
2019-03-20T17:23:00.501Z,22.93
2019-03-20T17:25:05.756Z,22.91
2019-03-20T17:27:07.382Z,22.90
2019-03-20T17:29:09.419Z,22.95
2019-03-20T17:31:10.711Z,22.94
2019-03-20T17:33:12.589Z,22.95
2019-03-20T17:35:14.213Z,22.93
2019-03-20T17:37:17.171Z,22.91
2019-03-20T17:39:18.774Z,22.92
2019-03-20T17:41:20.378Z,22.95
2019-03-20T17:43:22.019Z,22.98
2019-03-20T17:45:23.618Z,22.98
2019-03-20T17:47:25.381Z,22.97
2019-03-20T17:49:27.223Z,23.01
2019-03-20T17:51:28.846Z,23.05
2019-03-20T17:53:30.544Z,23.04
2019-03-20T17:55:32.154Z,23.06
2019-03-20T17:57:33.808Z,23.08
2019-03-20T17:59:35.416Z,23.47
2019-03-20T18:01:37.011Z,23.29
2019-03-20T18:03:38.658Z,23.07
2019-03-20T18:05:40.262Z,23.05
2019-03-20T18:07:41.912Z,23.24
2019-03-20T18:09:43.510Z,23.32
2019-03-20T18:11:47.747Z,23.41
2019-03-20T18:13:46.802Z,23.54
2019-03-20T18:15:48.405Z,23.56
2019-03-20T18:17:50.034Z,23.59
2019-03-20T18:19:51.633Z,23.67
2019-03-20T18:21:53.230Z,23.71
2019-03-20T18:23:54.861Z,23.72
2019-03-20T18:25:56.472Z,23.76
2019-03-20T18:27:58.088Z,23.72
2019-03-20T18:29:59.672Z,23.72
2019-03-20T18:32:05.089Z,23.76
2019-03-20T18:34:08.488Z,23.77
2019-03-20T18:36:10.165Z,23.76
2019-03-20T18:38:11.900Z,23.80
2019-03-20T18:40:13.504Z,23.84
2019-03-20T18:42:15.107Z,23.76
2019-03-20T18:44:16.730Z,23.58
2019-03-20T18:46:18.323Z,23.44
2019-03-20T18:48:19.905Z,23.61
2019-03-20T18:50:21.519Z,23.72
2019-03-20T18:52:23.115Z,23.53
2019-03-20T18:54:24.743Z,23.20
2019-03-20T18:56:26.357Z,23.36
2019-03-20T18:58:27.958Z,23.50
2019-03-20T19:00:29.594Z,23.55
2019-03-20T19:02:31.190Z,23.56
2019-03-20T19:04:32.800Z,23.72
2019-03-20T19:06:34.408Z,23.65
2019-03-20T19:08:36.046Z,23.68
2019-03-20T19:10:37.839Z,23.57
2019-03-20T19:12:39.489Z,23.46
2019-03-20T19:14:41.142Z,23.34
2019-03-20T19:16:42.741Z,23.49
2019-03-20T19:18:44.342Z,23.72
2019-03-20T19:20:45.991Z,23.78
2019-03-20T19:22:47.647Z,23.87
2019-03-20T19:24:49.228Z,23.69
2019-03-20T19:26:50.822Z,23.52
2019-03-20T19:28:52.457Z,23.74
2019-03-20T19:30:54.057Z,23.80
2019-03-20T19:32:55.642Z,23.83
2019-03-20T19:34:57.248Z,23.82
2019-03-20T19:36:58.864Z,23.78
2019-03-20T19:39:00.508Z,23.74
2019-03-20T19:41:08.824Z,23.52
2019-03-20T19:43:08.766Z,23.69
2019-03-20T19:45:10.362Z,23.85
2019-03-20T19:47:11.972Z,23.86
2019-03-20T19:49:13.719Z,23.88
2019-03-20T19:51:15.353Z,23.77
2019-03-20T19:53:17.118Z,23.67
2019-03-20T19:55:18.717Z,23.69
2019-03-20T19:57:20.310Z,23.86
2019-03-20T19:59:21.910Z,23.74
2019-03-20T20:01:23.541Z,23.76
2019-03-20T20:03:25.139Z,23.78
2019-03-20T20:05:26.796Z,23.64
2019-03-20T20:07:28.399Z,23.66
2019-03-20T20:09:29.994Z,23.58
2019-03-20T20:11:31.635Z,23.73
2019-03-20T20:13:33.247Z,23.77
2019-03-20T20:15:34.851Z,23.67
2019-03-20T20:17:36.460Z,23.56
2019-03-20T20:19:38.130Z,23.28
2019-03-20T20:21:39.722Z,23.61
2019-03-20T20:23:41.304Z,23.59
2019-03-20T20:25:42.934Z,23.73
2019-03-20T20:27:44.598Z,23.67
2019-03-20T20:29:46.234Z,23.72
2019-03-20T20:31:47.959Z,23.70
2019-03-20T20:33:49.560Z,23.88
2019-03-20T20:35:51.323Z,23.48
2019-03-20T20:37:52.928Z,23.31
2019-03-20T20:39:54.523Z,23.32
2019-03-20T20:41:56.134Z,23.33
2019-03-20T20:43:57.750Z,23.62
2019-03-20T20:45:59.386Z,23.75
2019-03-20T20:48:05.981Z,23.49
2019-03-20T20:50:07.591Z,23.61
2019-03-20T20:52:19.129Z,23.36
2019-03-20T20:54:10.856Z,23.66
2019-03-20T20:56:12.503Z,23.71
2019-03-20T20:58:14.098Z,23.70
2019-03-20T21:00:15.708Z,23.65
2019-03-20T21:02:17.330Z,23.76
2019-03-20T21:04:18.941Z,23.76
2019-03-20T21:06:20.588Z,23.80
2019-03-20T21:08:23.249Z,23.84
2019-03-20T21:10:25.044Z,23.84
2019-03-20T21:12:26.645Z,23.62
2019-03-20T21:14:28.245Z,23.67
2019-03-20T21:16:29.842Z,23.55
2019-03-20T21:18:31.443Z,23.63
2019-03-20T21:20:33.270Z,23.65
2019-03-20T21:22:34.919Z,23.59
2019-03-20T21:24:36.518Z,23.74
2019-03-20T21:26:38.168Z,23.72
2019-03-20T21:28:39.752Z,23.80
2019-03-20T21:30:41.350Z,23.61
2019-03-20T21:32:42.955Z,23.41
2019-03-20T21:34:44.568Z,23.66
2019-03-20T21:36:46.204Z,23.32
2019-03-20T21:38:48.032Z,23.23
2019-03-20T21:40:49.644Z,23.25
2019-03-20T21:42:51.289Z,23.31
2019-03-20T21:44:52.900Z,23.34
2019-03-20T21:46:54.546Z,23.37
2019-03-20T21:48:56.137Z,23.31
2019-03-20T21:50:58.479Z,23.45
2019-03-20T21:53:00.126Z,23.51
2019-03-20T21:55:07.224Z,23.59
2019-03-20T21:57:08.877Z,23.72
2019-03-20T21:59:10.479Z,23.73
2019-03-20T22:01:12.266Z,23.73
2019-03-20T22:03:13.894Z,23.73
2019-03-20T22:05:23.032Z,23.63
2019-03-20T22:07:17.180Z,23.64
2019-03-20T22:09:18.861Z,23.60
2019-03-20T22:11:20.510Z,23.49
2019-03-20T22:13:22.111Z,23.39
2019-03-20T22:15:23.709Z,23.38
2019-03-20T22:17:25.454Z,23.43
2019-03-20T22:19:27.225Z,23.61
2019-03-20T22:21:28.821Z,23.71
2019-03-20T22:23:30.424Z,23.70
2019-03-20T22:25:33.042Z,23.56
2019-03-20T22:27:34.623Z,23.63
2019-03-20T22:29:36.268Z,23.67
2019-03-20T22:31:37.866Z,23.58
2019-03-20T22:33:39.448Z,23.75
2019-03-20T22:35:41.077Z,23.76
2019-03-20T22:37:42.802Z,23.58
2019-03-20T22:39:44.397Z,23.55
2019-03-20T22:41:46.020Z,23.53
2019-03-20T22:43:48.080Z,23.58
2019-03-20T22:45:49.686Z,23.52
2019-03-20T22:47:51.288Z,23.52
2019-03-20T22:49:52.922Z,23.46
2019-03-20T22:51:54.523Z,23.44
2019-03-20T22:53:56.117Z,23.45
2019-03-20T22:55:57.700Z,23.50
2019-03-20T22:57:59.307Z,23.50
2019-03-20T23:02:07.628Z,23.63
2019-03-20T23:04:09.213Z,23.67
2019-03-20T23:06:10.816Z,23.72
2019-03-20T23:08:12.427Z,23.63
2019-03-20T23:10:14.067Z,23.49
2019-03-20T23:12:17.813Z,23.55
2019-03-20T23:14:17.345Z,23.54
2019-03-20T23:16:18.960Z,23.69
2019-03-20T23:18:20.657Z,23.74
2019-03-20T23:20:22.281Z,23.60
2019-03-20T23:22:23.887Z,23.46
2019-03-20T23:24:25.482Z,23.39
2019-03-20T23:26:27.092Z,23.45
2019-03-20T23:28:28.725Z,23.66
2019-03-20T23:30:30.318Z,23.73
2019-03-20T23:32:31.928Z,23.71
2019-03-20T23:34:33.575Z,23.57
2019-03-20T23:36:35.182Z,23.47
2019-03-20T23:38:36.777Z,23.44
2019-03-20T23:40:38.505Z,23.48
2019-03-20T23:42:40.542Z,23.38
2019-03-20T23:44:42.173Z,23.41
2019-03-20T23:46:43.784Z,23.45
2019-03-20T23:48:45.380Z,23.52
2019-03-20T23:50:47.028Z,23.56
2019-03-20T23:52:48.621Z,23.29
2019-03-20T23:54:50.260Z,22.85
2019-03-20T23:56:51.872Z,22.59
2019-03-20T23:58:53.553Z,22.62
